Aviation Digital Data Service (ADDS)

Output produced by METARs form (2346 UTC 29 March 2015)
found at http://aviationweather.gov/adds/metars/
 
KPHL 292332Z 3000/3106 23008KT P6SM SCT250 
     FM300400 20008KT P6SM BKN150 
     FM300900 21010KT P6SM -RA BKN050 
     FM301400 25012G22KT P6SM FEW030 BKN050 
     FM301800 27014G24KT P6SM SCT050 
     FM302100 29018G26KT P6SM SCT100